Latest Weather Observations for Mount Gellibrand

IDV60801

Issued at 9:31 am EDT Friday 6 March 2015 (issued every 30 minutes, with the page automatically refreshed every 10 minutes)

About weather observations | Map of weather stations | Latest weather observations for VIC | Other Formats
Station Details ID: 090035 Name: MOUNT GELLIBRAND Lat: -38.23 Lon: 143.79 Height: 261.0 m
Data from the previous 72 hours. | See also: Recent months at Mount Gellibrand
Date/Time
EDT
Temp
°C
App
Temp
°C
Dew
Point
Rel
Hum
%
Delta-T
°C
Wind Press
QNH
hPa
Press
MSL
hPa
Rain
since 9 am
mm
Dir
 
Spd
km/h
Gust
km/h
Spd
kts
Gust
kts
06/09:30am 13.2 8.0 12.7 97 0.3 W 32 44 17 24 1010.9 1010.3 0.4
06/09:00am 12.9 7.0 12.4 97 0.3 W 35 46 19 25 1010.6 1010.0 1.8
06/08:30am 12.6 5.5 12.1 97 0.3 W 41 50 22 27 1010.1 1009.5 1.6
06/08:00am 12.4 5.6 11.9 97 0.3 W 39 48 21 26 1010.0 1009.4 1.2
06/07:30am 12.1 5.6 11.6 97 0.3 W 37 48 20 26 1009.9 1009.3 1.0
06/07:00am 11.3 4.9 10.7 96 0.3 WNW 35 41 19 22 1009.8 1009.2 0.6
06/06:30am 11.0 3.4 10.4 96 0.3 WNW 41 50 22 27 1009.5 1008.9 0.2
06/06:00am 10.8 2.1 9.9 94 0.5 W 46 54 25 29 1009.6 1009.0 0.0
06/05:30am 11.2 2.8 9.5 89 0.9 W 44 56 24 30 1009.5 1008.9 0.0
06/05:00am 11.5 3.0 8.7 83 1.4 W 43 50 23 27 1009.9 1009.3 0.0
06/04:30am 11.4 1.9 8.4 82 1.5 W 48 59 26 32 1010.1 1009.5 0.0
06/04:00am 11.4 1.3 8.8 84 1.3 W 52 61 28 33 1010.1 1009.5 0.0
06/03:30am 11.3 1.5 8.5 83 1.4 W 50 61 27 33 1010.6 1010.0 0.0
06/03:00am 11.2 2.4 7.9 80 1.6 W 44 54 24 29 1011.2 1010.6 0.0
06/02:30am 11.4 1.8 8.1 80 1.6 W 48 59 26 32 1011.4 1010.8 0.0
06/02:00am 11.4 1.4 7.7 78 1.8 W 50 63 27 34 1011.9 1011.2 0.0
06/01:30am 11.2 1.4 7.1 76 2.0 WNW 48 59 26 32 1012.0 1011.3 0.0
06/01:00am 11.3 1.9 7.0 75 2.1 W 46 57 25 31 1012.4 1011.8 0.0
06/12:30am 11.2 1.3 6.5 73 2.2 W 48 57 26 31 1012.4 1011.8 0.0
06/12:00am 11.4 1.9 6.5 72 2.3 WNW 46 57 25 31 1013.0 1012.4 0.0
 
Date/Time
EDT
Temp
°C
App
Temp
°C
Dew
Point
Rel
Hum
%
Delta-T
°C
Wind Press
QNH
hPa
Press
MSL
hPa
Rain
since 9 am
mm
Dir
 
Spd
km/h
Gust
km/h
Spd
kts
Gust
kts
05/11:30pm 11.7 2.5 6.4 70 2.5 W 44 54 24 29 1013.5 1012.9 0.0
05/11:00pm 11.8 2.6 6.3 69 2.6 W 44 52 24 28 1013.9 1013.3 0.0
05/10:30pm 11.9 2.8 6.0 67 2.8 W 43 54 23 29 1014.3 1013.7 0.0
05/10:00pm 12.0 2.7 6.1 67 2.8 W 44 54 24 29 1014.5 1013.9 0.0
05/09:30pm 11.8 4.3 6.1 68 2.7 W 35 46 19 25 1014.9 1014.3 0.0
05/09:00pm 12.0 4.1 6.3 68 2.7 W 37 46 20 25 1014.8 1014.2 0.0
05/08:30pm 12.4 4.8 5.8 64 3.1 W 35 50 19 27 1014.8 1014.2 0.0
05/08:00pm 12.6 5.5 5.3 61 3.4 W 32 43 17 23 1015.0 1014.4 0.0
05/07:30pm 12.7 4.9 6.7 67 2.9 WSW 37 48 20 26 1015.4 1014.8 0.0
05/07:00pm 13.7 4.5 5.6 58 3.9 WSW 43 50 23 27 1015.3 1014.7 0.0
05/06:30pm 14.2 5.5 4.2 51 4.7 WSW 39 46 21 25 1015.4 1014.8 0.0
05/06:00pm 14.3 6.0 4.3 51 4.7 WSW 37 48 20 26 1015.7 1015.2 0.0
05/05:30pm 13.8 4.1 5.9 59 3.8 WSW 46 54 25 29 1015.9 1015.3 0.0
05/05:00pm 14.9 5.1 3.4 46 5.3 WSW 44 57 24 31 1016.0 1015.4 0.0
05/04:30pm 15.5 6.0 3.9 46 5.4 WSW 43 56 23 30 1016.1 1015.5 0.0
05/04:00pm 16.2 7.2 4.3 45 5.6 WSW 41 54 22 29 1016.4 1015.8 0.0
05/03:30pm 16.9 8.1 3.6 41 6.2 WSW 39 52 21 28 1016.7 1016.1 0.0
05/03:00pm 15.5 6.6 5.1 50 5.0 WSW 41 50 22 27 1016.9 1016.3 0.0
05/02:30pm 16.2 8.4 4.9 47 5.4 WSW 35 50 19 27 1017.1 1016.5 0.0
05/02:00pm 15.9 7.2 4.3 46 5.5 WSW 39 54 21 29 1017.3 1016.7 0.0
05/01:57pm 15.7 7.8 4.1 46 5.5 WSW 35 54 19 29 1017.2 1016.6 0.0
05/01:30pm 17.1 9.7 4.1 42 6.2 WSW 32 44 17 24 1017.4 1016.8 0.0
05/01:03pm 15.5 8.0 4.3 47 5.3 WSW 33 56 18 30 1017.3 1016.7 0.0
05/01:00pm 16.1 8.2 4.5 46 5.5 WSW 35 50 19 27 1017.6 1017.0 0.0
05/12:30pm 16.0 8.7 5.3 49 5.2 WSW 33 44 18 24 1017.8 1017.2 0.0
05/12:00pm 15.7 7.6 3.5 44 5.7 SW 35 48 19 26 1017.9 1017.3 0.0
05/11:30am 15.5 7.0 3.3 44 5.6 SW 37 50 20 27 1017.6 1017.0 0.0
05/11:18am 14.4 6.9 4.4 51 4.7 SW 33 52 18 28 1017.8 1017.2 0.0
05/11:00am 13.6 4.2 4.7 55 4.2 SSW 43 52 23 28 1017.6 1017.0 0.0
05/10:30am 12.9 3.7 5.6 61 3.5 SW 43 50 23 27 1017.3 1016.7 0.0
05/10:00am 12.2 4.4 4.9 61 3.4 SW 35 48 19 26 1017.4 1016.8 0.0
05/09:58am 12.1 4.7 4.8 61 3.4 SW 33 48 18 26 1017.5 1016.9 0.0
05/09:41am 10.9 1.5 5.2 68 2.6 SSW 44 57 24 31 1017.5 1016.9 0.0
05/09:30am 12.3 4.9 5.2 62 3.3 SW 33 48 18 26 1017.2 1016.6 0.0
05/09:00am 11.5 4.2 4.3 61 3.3 SW 32 43 17 23 1016.7 1016.1 0.2
05/08:30am 10.5 4.3 4.4 66 2.8 SW 26 37 14 20 1016.5 1015.9 0.2
05/08:00am 9.8 2.8 4.2 68 2.5 SW 30 37 16 20 1015.9 1015.3 0.2
05/07:30am 9.4 1.4 3.8 68 2.5 SW 35 44 19 24 1015.1 1014.5 0.2
05/07:00am 8.9 0.5 3.7 70 2.3 SW 37 44 20 24 1014.4 1013.8 0.2
05/06:30am 9.0 0.6 3.6 69 2.4 WSW 37 48 20 26 1014.0 1013.4 0.2
05/06:00am 8.9 1.4 3.7 70 2.3 WSW 32 41 17 22 1014.0 1013.4 0.2
05/05:30am 9.2 1.6 4.0 70 2.3 SW 33 48 18 26 1013.6 1013.0 0.2
05/05:02am 9.7 0.2 3.7 66 2.7 WSW 43 61 23 33 1013.1 1012.5 0.2
05/05:00am 9.5 0.0 3.9 68 2.5 WSW 43 56 23 30 1013.0 1012.4 0.2
05/04:30am 9.3 -0.4 3.7 68 2.5 WSW 44 54 24 29 1012.3 1011.7 0.2
05/04:00am 9.6 -1.2 4.0 68 2.5 WSW 50 65 27 35 1011.7 1011.1 0.2
05/03:30am 9.9 -0.9 6.1 77 1.8 WSW 52 63 28 34 1011.1 1010.5 0.2
05/03:00am 10.1 -2.7 6.6 79 1.7 SW 63 82 34 44 1010.4 1009.8 0.2
05/02:41am 10.8 -2.0 8.0 83 1.4 WSW 65 98 35 53 1009.6 1009.0 0.2
05/02:30am 11.4 0.6 9.1 86 1.2 WSW 56 76 30 41 1010.0 1009.4 0.2
05/02:08am 11.7 1.7 9.4 86 1.2 WSW 52 70 28 38 1009.8 1009.2 0.2
05/02:00am 11.8 3.0 9.5 86 1.2 WSW 46 61 25 33 1009.6 1009.0 0.2
05/01:44am 11.5 0.2 9.6 88 1.0 WSW 59 83 32 45 1009.5 1008.9 0.2
05/01:42am 11.7 0.9 9.8 88 1.0 WSW 57 83 31 45 1009.3 1008.7 0.2
05/01:30am 12.1 3.3 11.0 93 0.6 W 48 74 26 40 1009.4 1008.8 0.2
05/01:12am 12.5 4.6 11.6 94 0.5 W 44 65 24 35 1009.1 1008.5 0.2
05/01:00am 12.5 3.9 11.6 94 0.5 W 48 59 26 32 1009.1 1008.5 0.2
05/12:33am 13.0 4.9 11.9 93 0.6 W 46 65 25 35 1009.0 1008.4 0.2
05/12:30am 13.1 4.6 12.0 93 0.6 WNW 48 65 26 35 1009.0 1008.4 0.2
05/12:14am 13.1 4.8 11.5 90 0.9 WNW 46 65 25 35 1009.1 1008.5 0.0
05/12:00am 13.8 5.0 11.1 84 1.4 WNW 48 59 26 32 1009.0 1008.4 0.0
 
Date/Time
EDT
Temp
°C
App
Temp
°C
Dew
Point
Rel
Hum
%
Delta-T
°C
Wind Press
QNH
hPa
Press
MSL
hPa
Rain
since 9 am
mm
Dir
 
Spd
km/h
Gust
km/h
Spd
kts
Gust
kts
04/11:30pm 13.6 4.8 11.1 85 1.3 WNW 48 63 26 34 1009.0 1008.4 0.0
04/11:00pm 13.8 5.5 11.5 86 1.2 WNW 46 57 25 31 1009.2 1008.6 0.0
04/10:50pm 13.8 3.5 11.8 88 1.1 WNW 57 76 31 41 1009.1 1008.5 0.0
04/10:30pm 14.1 4.0 11.6 85 1.4 W 56 74 30 40 1009.2 1008.6 0.0
04/10:20pm 15.9 6.2 10.4 70 2.9 W 52 72 28 39 1009.3 1008.7 0.0
04/10:19pm 15.9 6.6 10.7 71 2.8 W 50 63 27 34 1009.3 1008.7 0.0
04/10:00pm 15.6 9.1 10.4 71 2.8 W 35 44 19 24 1009.8 1009.2 0.0
04/09:30pm 15.7 10.3 10.9 73 2.6 W 30 41 16 22 1010.0 1009.4 0.0
04/09:00pm 15.9 10.9 10.9 72 2.7 WSW 28 41 15 22 1010.1 1009.5 0.0
04/08:30pm 17.3 12.0 10.0 62 3.9 W 28 43 15 23 1010.0 1009.4 0.0
04/08:16pm 17.8 11.1 9.7 59 4.3 W 35 48 19 26 1009.6 1009.0 0.0
04/08:00pm 17.3 13.7 10.4 64 3.7 W 20 28 11 15 1009.9 1009.3 0.0
04/07:30pm 17.9 13.2 10.5 62 4.0 W 26 35 14 19 1010.0 1009.4 0.0
04/07:00pm 18.1 11.3 10.7 62 4.0 WSW 37 43 20 23 1010.0 1009.4 0.0
04/06:30pm 19.4 13.1 10.9 58 4.7 W 35 44 19 24 1010.1 1009.5 0.0
04/06:00pm 19.1 13.1 10.9 59 4.5 W 33 43 18 23 1010.6 1010.0 0.0
04/05:30pm 19.3 12.3 10.0 55 5.0 W 37 46 20 25 1010.6 1010.0 0.0
04/05:08pm 19.1 12.9 10.1 56 4.9 WSW 33 52 18 28 1010.7 1010.1 0.0
04/05:00pm 18.9 11.6 10.2 57 4.7 W 39 52 21 28 1010.6 1010.0 0.0
04/04:30pm 19.8 12.5 10.2 54 5.2 W 39 50 21 27 1011.2 1010.6 0.0
04/04:10pm 19.7 13.5 10.1 54 5.2 W 33 52 18 28 1011.4 1010.8 0.0
04/04:00pm 19.8 12.9 10.2 54 5.2 W 37 54 20 29 1011.4 1010.8 0.0
04/03:53pm 19.7 13.1 9.9 53 5.3 W 35 54 19 29 1011.4 1010.8 0.0
04/03:30pm 19.4 13.0 10.7 57 4.8 W 35 46 19 25 1012.1 1011.4 0.0
04/03:00pm 19.3 12.7 10.0 55 5.0 W 35 50 19 27 1012.2 1011.5 0.0
04/02:34pm 19.1 13.2 10.4 57 4.7 W 32 50 17 27 1012.5 1011.9 0.0
04/02:30pm 18.8 12.9 10.6 59 4.5 W 32 44 17 24 1012.8 1012.2 0.0
04/02:00pm 20.2 13.9 10.9 55 5.1 WNW 35 48 19 26 1012.9 1012.3 0.0
04/01:30pm 18.8 11.6 10.6 59 4.5 WNW 39 52 21 28 1013.1 1012.5 0.0
04/01:00pm 17.3 10.7 11.3 68 3.3 W 37 48 20 26 1013.7 1013.1 0.0
04/12:30pm 17.2 10.6 9.9 62 3.9 WNW 35 46 19 25 1013.9 1013.3 0.0
04/12:00pm 17.4 11.1 9.8 61 4.1 WNW 33 43 18 23 1014.3 1013.7 0.0
04/11:30am 16.7 10.7 10.1 65 3.5 W 32 43 17 23 1014.8 1014.2 0.0
04/11:00am 15.6 10.7 9.9 69 3.0 WNW 26 33 14 18 1015.2 1014.6 0.0
04/10:30am 14.9 8.2 9.7 71 2.7 W 35 44 19 24 1015.2 1014.6 0.0
04/10:00am 13.9 8.6 9.7 76 2.2 WNW 28 35 15 19 1015.1 1014.5 0.0
04/09:30am 13.3 8.0 9.7 79 1.9 WNW 28 35 15 19 1015.0 1014.4 0.0
04/09:00am 12.6 8.2 10.3 86 1.2 WNW 24 32 13 17 1015.0 1014.4 0.0
04/08:30am 11.5 8.0 10.2 92 0.7 WNW 19 22 10 12 1014.8 1014.2 0.0
04/08:00am 10.2 6.2 9.1 93 0.6 WNW 20 26 11 14 1014.7 1014.1 0.0
04/07:30am 9.3 5.1 8.2 93 0.5 WNW 20 24 11 13 1014.6 1014.0 0.0
04/07:00am 9.2 4.2 8.1 93 0.5 WNW 24 26 13 14 1014.2 1013.6 0.0
04/06:30am 9.2 4.1 7.8 91 0.7 WNW 24 26 13 14 1014.2 1013.6 0.0
04/06:00am 9.8 4.8 8.2 90 0.8 WNW 24 28 13 15 1014.2 1013.6 0.0
04/05:30am 10.0 5.5 8.6 91 0.7 WNW 22 28 12 15 1014.5 1013.9 0.0
04/05:00am 10.0 5.1 8.4 90 0.8 WNW 24 28 13 15 1014.6 1014.0 0.0
04/04:30am 10.1 5.6 8.4 89 0.8 WNW 22 26 12 14 1014.7 1014.1 0.0
04/04:00am 10.9 6.1 8.8 87 1.1 WNW 24 30 13 16 1014.9 1014.3 0.0
04/03:30am 10.7 6.3 8.8 88 1.0 WNW 22 26 12 14 1015.1 1014.5 0.0
04/03:00am 10.9 7.0 8.7 86 1.1 WNW 19 20 10 11 1015.5 1015.0 0.0
04/02:30am 11.4 8.3 8.8 84 1.3 WNW 15 17 8 9 1015.7 1015.2 0.0
04/02:00am 11.4 8.6 8.6 83 1.4 WNW 13 15 7 8 1016.1 1015.5 0.0
04/01:30am 11.5 9.1 8.5 82 1.5 W 11 13 6 7 1016.4 1015.8 0.0
04/01:00am 11.7 8.5 8.6 81 1.6 W 15 17 8 9 1016.7 1016.1 0.0
04/12:30am 11.9 9.9 8.6 80 1.7 W 9 13 5 7 1016.8 1016.2 0.0
04/12:00am 12.2 9.4 8.5 78 1.9 WSW 13 15 7 8 1017.1 1016.5 0.0
 
Date/Time
EDT
Temp
°C
App
Temp
°C
Dew
Point
Rel
Hum
%
Delta-T
°C
Wind Press
QNH
hPa
Press
MSL
hPa
Rain
since 9 am
mm
Dir
 
Spd
km/h
Gust
km/h
Spd
kts
Gust
kts
03/11:30pm 12.3 9.1 8.4 77 2.0 SW 15 17 8 9 1017.2 1016.6 0.0
03/11:00pm 13.6 10.0 8.2 70 2.7 WSW 17 19 9 10 1017.5 1016.9 0.0
03/10:30pm 13.7 10.2 8.7 72 2.5 WSW 17 19 9 10 1017.5 1016.9 0.0
03/10:00pm 13.7 11.6 9.9 78 2.0 WSW 11 13 6 7 1017.5 1016.9 0.0
03/09:30pm 14.4 13.6 9.8 74 2.4 NE 4 9 2 5 1017.3 1016.7 0.0
03/09:00pm 14.8 13.9 10.6 76 2.2 E 6 7 3 4 1016.9 1016.3 0.0
03/08:30pm 14.5 13.3 10.3 76 2.2 E 7 9 4 5 1016.6 1016.0 0.0
03/08:00pm 15.5 13.7 10.7 73 2.6 ESE 11 13 6 7 1016.3 1015.7 0.0
03/07:30pm 16.6 14.4 10.7 68 3.2 ESE 13 17 7 9 1016.1 1015.5 0.0
03/07:00pm 18.2 17.2 11.0 63 3.9 ESE 7 11 4 6 1016.0 1015.4 0.0
03/06:30pm 20.4 16.6 9.0 48 6.1 WSW 19 24 10 13 1015.6 1015.1 0.0
03/06:00pm 21.0 17.5 8.9 46 6.5 WSW 17 22 9 12 1015.6 1015.1 0.0
03/05:30pm 21.6 18.6 9.2 45 6.7 WSW 15 26 8 14 1015.4 1014.8 0.0
03/05:00pm 21.8 20.3 9.0 44 6.9 WNW 7 15 4 8 1015.5 1015.0 0.0
03/04:30pm 21.6 19.2 8.5 43 7.0 WSW 11 24 6 13 1015.7 1015.2 0.0
03/04:00pm 21.0 18.1 8.0 43 6.8 WSW 13 20 7 11 1016.1 1015.5 0.0
03/03:30pm 21.4 17.9 7.3 40 7.3 W 15 24 8 13 1016.1 1015.5 0.0
03/03:00pm 20.9 17.4 7.2 41 7.1 SW 15 26 8 14 1016.5 1015.9 0.0
03/02:30pm 21.6 18.8 7.1 39 7.5 SSW 11 22 6 12 1016.8 1016.2 0.0
03/02:00pm 21.2 17.8 5.9 37 7.7 WSW 13 24 7 13 1016.9 1016.3 0.0
03/01:30pm 20.4 18.3 8.1 45 6.5 W 9 15 5 8 1017.3 1016.7 0.0
03/01:00pm 19.5 16.5 7.6 46 6.2 SW 13 20 7 11 1017.5 1016.9 0.0
03/12:30pm 19.1 17.0 8.1 49 5.7 WSW 9 19 5 10 1017.9 1017.3 0.0
03/12:00pm 18.5 16.7 7.9 50 5.5 SE 7 13 4 7 1018.0 1017.4 0.0
03/11:30am 17.5 15.9 8.1 54 4.9 W 6 11 3 6 1018.2 1017.6 0.0
03/11:00am 16.8 15.4 8.8 59 4.2 SSW 6 13 3 7 1018.3 1017.7 0.0
03/10:30am 15.3 13.9 9.0 66 3.3 SSW 6 11 3 6 1018.2 1017.6 0.0
03/10:00am 16.0 14.8 10.3 69 3.0 SSW 7 9 4 5 1018.1 1017.5 0.0

Other Formats:

Comma delimited format used in spreadsheet applications
http://www.bom.gov.au/fwo/IDV60801/IDV60801.95845.axf

JavaScript Object Notation format (JSON) in row-major order
http://www.bom.gov.au/fwo/IDV60801/IDV60801.95845.json